Time;durP1;ratioP1;P1;durP2;ratioP2;P2;SDS_P1;SDS_P2;PMS_P1;PMS_P2;Temp;Humidity;BMP_temperature;BMP_pressure;BME280_temperature;BME280_humidity;BME280_pressure;Samples;Min_cycle;Max_cycle;Signal;HPM_P1;HPM_P2
2022/07/21 00:00:48;;;;;;;1.52;1.40;;;20.10;99.90;;;;;;5240871;28;20031;-62
2022/07/21 00:03:19;;;;;;;1.67;1.55;;;20.10;99.90;;;;;;5219062;28;20029;-61
2022/07/21 00:05:53;;;;;;;1.55;1.42;;;20.00;99.90;;;;;;5198249;28;20036;-62
2022/07/21 00:08:30;;;;;;;;;;;20.00;99.90;;;;;;5238267;28;20032;-61
2022/07/21 00:11:01;;;;;;;2.15;1.60;;;19.90;99.90;;;;;;5218742;28;20246;-61
2022/07/21 00:13:33;;;;;;;1.90;1.40;;;19.90;99.90;;;;;;5220571;28;20028;-61
2022/07/21 00:16:08;;;;;;;1.52;1.40;;;19.90;99.90;;;;;;5218196;28;20340;-61
2022/07/21 00:18:39;;;;;;;2.60;1.23;;;19.80;99.90;;;;;;5237465;28;20024;-62
2022/07/21 00:21:13;;;;;;;2.35;1.40;;;19.70;99.90;;;;;;5222743;28;20032;-62
2022/07/21 00:23:44;;;;;;;2.17;1.45;;;19.60;99.90;;;;;;5239103;28;20301;-62
2022/07/21 00:26:15;;;;;;;1.52;1.33;;;19.60;99.90;;;;;;5239054;28;20345;-62
2022/07/21 00:28:47;;;;;;;3.58;1.40;;;19.60;99.90;;;;;;5239149;28;20026;-62
2022/07/21 00:31:18;;;;;;;3.40;1.70;;;19.50;99.90;;;;;;5240644;28;20031;-61
2022/07/21 00:33:53;;;;;;;2.33;1.42;;;19.50;99.90;;;;;;5242184;28;20899;-62
2022/07/21 00:36:25;;;;;;;1.92;1.70;;;19.50;99.90;;;;;;5240167;28;20365;-62
2022/07/21 00:38:57;;;;;;;2.72;1.70;;;19.50;99.90;;;;;;5242833;28;20038;-62
2022/07/21 00:41:31;;;;;;;2.20;1.40;;;19.40;99.90;;;;;;5222733;28;20032;-61
2022/07/21 00:44:02;;;;;;;10.02;2.08;;;19.30;99.90;;;;;;5242815;28;20021;-62
2022/07/21 00:46:33;;;;;;;3.08;1.40;;;19.40;99.90;;;;;;5239896;28;20035;-62
2022/07/21 00:49:05;;;;;;;1.70;1.60;;;19.40;99.90;;;;;;5241886;28;20044;-61
2022/07/21 00:51:36;;;;;;;1.70;1.42;;;19.30;99.90;;;;;;5245063;28;20211;-61
2022/07/21 00:54:07;;;;;;;2.53;1.30;;;19.40;99.90;;;;;;5242953;28;20039;-61
2022/07/21 00:56:39;;;;;;;1.42;1.33;;;19.30;99.90;;;;;;5239438;28;20020;-62
2022/07/21 00:59:11;;;;;;;1.55;1.45;;;19.30;99.90;;;;;;5240139;28;20532;-61
2022/07/21 01:01:44;;;;;;;1.50;1.23;;;19.20;99.90;;;;;;5222337;28;20028;-61
2022/07/21 01:04:21;;;;;;;5.40;1.92;;;19.10;99.90;;;;;;5223701;28;20241;-62
2022/07/21 01:06:59;;;;;;;1.75;1.63;;;19.00;99.90;;;;;;5227928;28;20044;-62
2022/07/21 01:09:36;;;;;;;5.15;1.75;;;18.90;99.90;;;;;;5222220;28;20058;-62
2022/07/21 01:12:13;;;;;;;1.33;1.20;;;19.00;99.90;;;;;;5242141;28;20039;-62
2022/07/21 01:14:49;;;;;;;1.80;1.25;;;19.00;99.90;;;;;;5240805;28;20198;-62
2022/07/21 01:17:21;;;;;;;1.45;1.30;;;18.90;99.90;;;;;;5207805;28;20025;-62
2022/07/21 01:19:53;;;;;;;1.48;1.38;;;18.90;99.90;;;;;;5242571;28;20035;-61
2022/07/21 01:22:28;;;;;;;1.50;1.40;;;18.80;99.90;;;;;;5240908;28;20028;-62
2022/07/21 01:24:59;;;;;;;;;;;18.90;99.90;;;;;;5222568;28;20340;-62
2022/07/21 01:27:35;;;;;;;2.05;1.42;;;18.80;99.90;;;;;;5206600;28;20117;-62
2022/07/21 01:30:13;;;;;;;1.40;1.30;;;18.70;99.90;;;;;;5221102;28;20046;-62
2022/07/21 01:32:50;;;;;;;1.38;1.27;;;18.60;99.90;;;;;;5241503;28;20023;-62
2022/07/21 01:35:24;;;;;;;2.03;1.60;;;18.50;99.90;;;;;;5221104;28;20024;-62
2022/07/21 01:37:59;;;;;;;1.35;1.25;;;18.50;99.90;;;;;;5241740;28;20332;-62
2022/07/21 01:43:23;;;;;;;2.10;1.38;;;18.50;99.90;;;;;;5240984;28;20018;-62
2022/07/21 01:45:54;;;;;;;2.22;1.50;;;18.50;99.90;;;;;;5237969;28;20032;-61
2022/07/21 01:48:30;;;;;;;2.38;1.75;;;18.40;99.90;;;;;;5244630;28;20341;-62
2022/07/21 01:51:02;;;;;;;2.05;1.27;;;18.30;99.90;;;;;;5244908;28;20298;-61
2022/07/21 01:53:36;;;;;;;3.05;1.30;;;18.30;99.90;;;;;;5237545;28;20020;-62
2022/07/21 01:56:07;;;;;;;2.88;1.50;;;18.30;99.90;;;;;;5216674;28;20233;-62
2022/07/21 01:58:39;;;;;;;2.05;1.60;;;18.30;99.90;;;;;;5221378;28;20213;-62
2022/07/21 02:01:10;;;;;;;1.45;1.33;;;18.30;99.90;;;;;;5247748;28;20020;-62
2022/07/21 02:03:49;;;;;;;1.92;1.73;;;18.30;99.90;;;;;;5239280;28;20037;-62
2022/07/21 02:06:20;;;;;;;1.80;1.70;;;18.20;99.90;;;;;;5235279;28;20379;-62
2022/07/21 02:08:56;;;;;;;1.63;1.52;;;18.30;99.90;;;;;;5233804;28;20054;-62
2022/07/21 02:11:28;;;;;;;2.75;1.60;;;18.30;99.90;;;;;;5220223;28;20332;-62
2022/07/21 02:13:59;;;;;;;1.98;1.83;;;18.20;99.90;;;;;;5240560;28;20042;-62
2022/07/21 02:16:32;;;;;;;5.80;2.53;;;18.20;99.90;;;;;;5223669;28;20042;-62
2022/07/21 02:19:08;;;;;;;2.07;1.57;;;18.20;99.90;;;;;;5242473;28;20213;-62
2022/07/21 02:21:40;;;;;;;3.13;1.60;;;18.20;99.90;;;;;;5240510;28;20306;-62
2022/07/21 02:24:11;;;;;;;4.55;1.95;;;18.10;99.90;;;;;;5248702;28;20048;-62
2022/07/21 02:26:45;;;;;;;2.35;1.63;;;18.10;99.90;;;;;;5241664;28;20040;-61
2022/07/21 02:29:18;;;;;;;1.42;1.30;;;18.20;99.90;;;;;;5259936;28;20327;-60
2022/07/21 02:31:49;;;;;;;1.70;1.60;;;18.20;99.90;;;;;;5222898;28;20027;-61
2022/07/21 02:34:24;;;;;;;4.40;1.75;;;18.30;99.90;;;;;;5239262;28;20028;-62
2022/07/21 02:36:55;;;;;;;4.28;1.77;;;18.20;99.90;;;;;;5245279;28;20024;-62
2022/07/21 02:39:26;;;;;;;1.85;1.73;;;18.30;99.90;;;;;;5252837;28;20021;-62
2022/07/21 02:41:58;;;;;;;3.33;1.63;;;18.30;99.90;;;;;;5234154;28;20038;-62
2022/07/21 02:44:32;;;;;;;2.42;1.58;;;18.40;99.90;;;;;;5226786;28;20035;-61
2022/07/21 02:47:06;;;;;;;1.70;1.58;;;18.40;99.90;;;;;;5201134;28;20033;-62
2022/07/21 02:49:38;;;;;;;1.45;1.35;;;18.30;99.90;;;;;;5202315;28;20029;-61
2022/07/21 02:52:09;;;;;;;1.88;1.55;;;18.30;99.90;;;;;;5199962;28;20025;-61
2022/07/21 02:54:43;;;;;;;5.70;1.65;;;18.30;99.90;;;;;;5233525;28;20028;-61
2022/07/21 02:57:17;;;;;;;2.08;1.60;;;18.30;99.90;;;;;;5223429;28;20022;-61
2022/07/21 02:59:48;;;;;;;1.83;1.35;;;18.20;99.90;;;;;;5239633;28;20035;-62
2022/07/21 03:02:22;;;;;;;1.67;1.33;;;18.20;99.90;;;;;;5222593;28;20296;-62
2022/07/21 03:04:53;;;;;;;1.75;1.65;;;18.10;99.90;;;;;;5228335;28;20046;-61
2022/07/21 03:07:26;;;;;;;1.75;1.50;;;18.00;99.90;;;;;;5238763;28;20026;-61
2022/07/21 03:09:59;;;;;;;1.88;1.58;;;18.00;99.90;;;;;;5221363;28;20038;-61
2022/07/21 03:12:36;;;;;;;1.70;1.60;;;18.00;99.90;;;;;;5237720;28;20020;-61
2022/07/21 03:15:08;;;;;;;2.03;1.85;;;17.90;99.90;;;;;;5220547;28;20350;-61
2022/07/21 03:17:42;;;;;;;2.50;1.60;;;18.00;99.90;;;;;;5221601;28;20332;-61
2022/07/21 03:20:13;;;;;;;1.73;1.45;;;18.00;99.90;;;;;;5238912;28;20023;-62
2022/07/21 03:22:45;;;;;;;1.95;1.70;;;18.00;99.90;;;;;;5218592;28;20047;-61
2022/07/21 03:25:16;;;;;;;2.13;1.63;;;18.00;99.90;;;;;;5220006;28;20016;-61
2022/07/21 03:27:48;;;;;;;2.22;1.50;;;17.90;99.90;;;;;;5238202;28;20225;-61
2022/07/21 03:30:24;;;;;;;3.25;1.85;;;17.90;99.90;;;;;;5236427;28;20312;-62
2022/07/21 03:32:56;;;;;;;3.00;1.50;;;17.90;99.90;;;;;;5236643;28;20043;-62
2022/07/21 03:35:29;;;;;;;2.13;1.60;;;17.90;99.90;;;;;;5236627;28;20032;-61
2022/07/21 03:38:06;;;;;;;1.92;1.35;;;17.90;99.90;;;;;;5234522;28;20050;-61
2022/07/21 03:40:39;;;;;;;1.40;1.30;;;18.00;99.90;;;;;;5227210;28;20367;-61
2022/07/21 03:43:13;;;;;;;1.70;1.60;;;18.20;99.90;;;;;;5235773;28;20030;-61
2022/07/21 03:45:45;;;;;;;3.65;1.40;;;18.30;99.90;;;;;;5237295;28;20025;-62
2022/07/21 03:48:18;;;;;;;2.92;1.75;;;18.40;99.90;;;;;;5218709;28;20024;-61
2022/07/21 03:50:49;;;;;;;2.10;1.60;;;18.60;99.90;;;;;;5219940;28;20028;-62
2022/07/21 03:53:26;;;;;;;1.88;1.60;;;18.80;99.90;;;;;;5233591;28;20039;-61
2022/07/21 03:56:00;;;;;;;3.03;1.80;;;19.00;99.90;;;;;;5236564;28;20055;-61
2022/07/21 03:58:37;;;;;;;2.03;1.70;;;19.20;99.90;;;;;;5221230;28;20041;-61
2022/07/21 04:01:08;;;;;;;1.90;1.52;;;19.40;99.90;;;;;;5240625;28;20025;-61
2022/07/21 04:03:39;;;;;;;2.22;1.60;;;19.50;99.90;;;;;;5236118;28;20036;-63
2022/07/21 04:06:14;;;;;;;1.58;1.48;;;19.60;99.90;;;;;;5224673;28;20048;-62
2022/07/21 04:08:45;;;;;;;1.50;1.40;;;19.80;99.90;;;;;;5200787;28;20342;-62
2022/07/21 04:11:19;;;;;;;2.03;1.50;;;20.00;99.90;;;;;;5232546;28;20035;-62
2022/07/21 04:13:50;;;;;;;2.22;1.85;;;20.10;99.90;;;;;;5247062;28;20038;-62
2022/07/21 04:16:21;;;;;;;1.95;1.60;;;20.20;99.90;;;;;;5262162;28;20286;-64
2022/07/21 04:18:55;;;;;;;2.97;1.65;;;20.30;99.90;;;;;;5247609;28;20016;-62
2022/07/21 04:21:29;;;;;;;2.28;1.75;;;20.50;99.90;;;;;;5267035;28;20045;-63
2022/07/21 04:24:00;;;;;;;2.22;1.65;;;20.80;99.90;;;;;;5244011;28;20383;-62
2022/07/21 04:26:32;;;;;;;2.72;1.40;;;21.00;99.90;;;;;;5262494;28;20024;-61
2022/07/21 04:29:07;;;;;;;1.95;1.52;;;21.10;99.90;;;;;;5262145;28;20026;-62
2022/07/21 04:31:39;;;;;;;5.07;1.20;;;21.20;99.90;;;;;;5247596;28;20028;-61
2022/07/21 04:34:15;;;;;;;1.90;1.70;;;21.50;99.90;;;;;;5222260;28;20033;-62
2022/07/21 04:36:51;;;;;;;4.97;1.75;;;21.50;99.90;;;;;;5239580;28;20054;-61
2022/07/21 04:39:23;;;;;;;2.80;1.92;;;21.60;99.90;;;;;;5207113;28;20269;-62
2022/07/21 04:41:55;;;;;;;1.92;1.63;;;21.70;99.90;;;;;;5239502;28;20050;-62
2022/07/21 04:44:29;;;;;;;3.90;1.75;;;21.80;99.90;;;;;;5241902;28;20286;-63
2022/07/21 04:47:00;;;;;;;2.42;1.70;;;21.90;99.90;;;;;;5242236;28;20031;-62
2022/07/21 04:49:31;;;;;;;1.67;1.30;;;22.30;99.90;;;;;;5243173;28;20209;-61
2022/07/21 04:52:03;;;;;;;1.52;1.38;;;22.60;99.90;;;;;;5240294;28;20290;-63
2022/07/21 04:54:34;;;;;;;4.40;1.52;;;22.80;99.90;;;;;;5221314;28;20024;-62
2022/07/21 04:57:08;;;;;;;2.95;1.35;;;23.00;99.90;;;;;;5239677;28;20031;-62
2022/07/21 04:59:42;;;;;;;1.85;1.70;;;23.20;99.90;;;;;;5240875;28;20044;-62
2022/07/21 05:02:19;;;;;;;2.28;1.50;;;23.20;99.90;;;;;;5225553;28;20336;-62
2022/07/21 05:04:53;;;;;;;2.33;1.67;;;23.10;99.90;;;;;;5227503;28;20051;-62
2022/07/21 05:07:26;;;;;;;2.00;1.70;;;23.30;99.90;;;;;;5236318;28;20038;-62
2022/07/21 05:10:00;;;;;;;5.22;1.80;;;23.50;99.90;;;;;;5221026;28;20047;-61
2022/07/21 05:12:32;;;;;;;1.60;1.42;;;23.60;99.90;;;;;;5243323;28;20060;-62
2022/07/21 05:15:06;;;;;;;1.70;1.42;;;23.50;99.90;;;;;;5238796;28;20294;-62
2022/07/21 05:17:37;;;;;;;1.52;1.35;;;23.50;99.90;;;;;;5239756;28;20028;-62
2022/07/21 05:20:10;;;;;;;1.90;1.50;;;23.70;99.90;;;;;;5239297;28;20384;-62
2022/07/21 05:22:44;;;;;;;1.70;1.60;;;23.80;99.90;;;;;;5204495;28;20028;-63
2022/07/21 05:25:17;;;;;;;4.10;1.60;;;23.70;99.90;;;;;;5241969;28;20294;-62
2022/07/21 05:27:54;;;;;;;3.13;1.52;;;23.90;99.90;;;;;;5205852;28;20036;-61
2022/07/21 05:30:25;;;;;;;2.25;1.65;;;24.00;99.90;;;;;;5224092;28;20021;-62
2022/07/21 05:32:58;;;;;;;1.58;1.30;;;23.90;99.90;;;;;;5240051;28;20025;-62
2022/07/21 05:35:30;;;;;;;2.20;1.60;;;24.00;99.90;;;;;;5239234;28;20024;-63
2022/07/21 05:38:02;;;;;;;2.00;1.70;;;24.20;99.90;;;;;;5239336;28;20302;-62
2022/07/21 05:40:33;;;;;;;1.88;1.60;;;24.80;99.90;;;;;;5239660;28;20024;-63
2022/07/21 05:43:05;;;;;;;2.63;1.85;;;25.10;99.90;;;;;;5221262;28;20025;-61
2022/07/21 05:45:41;;;;;;;2.72;1.92;;;25.40;99.90;;;;;;5222076;28;20028;-62
2022/07/21 05:48:15;;;;;;;3.67;1.80;;;25.70;99.90;;;;;;5221508;28;20036;-64
2022/07/21 05:50:51;;;;;;;4.97;2.05;;;26.30;99.90;;;;;;5240006;28;20038;-62
2022/07/21 05:53:22;;;;;;;1.98;1.60;;;26.60;99.90;;;;;;5224099;28;20031;-62
2022/07/21 05:55:54;;;;;;;1.92;1.63;;;26.70;99.90;;;;;;5222628;28;20025;-62
2022/07/21 05:58:28;;;;;;;1.95;1.60;;;27.20;99.90;;;;;;5224321;28;20031;-62
2022/07/21 06:01:12;;;;;;;3.70;1.85;;;27.50;99.90;;;;;;5206256;28;20028;-63
2022/07/21 06:03:46;;;;;;;4.28;2.03;;;27.90;99.90;;;;;;5222916;28;20034;-62
2022/07/21 06:06:19;;;;;;;4.22;2.33;;;28.30;99.90;;;;;;5197487;28;20083;-62
2022/07/21 06:08:51;;;;;;;4.68;2.40;;;28.20;99.90;;;;;;5242453;28;20035;-63
2022/07/21 06:11:25;;;;;;;4.10;2.33;;;27.90;99.90;;;;;;5237537;28;20036;-63
2022/07/21 06:13:58;;;;;;;2.97;2.37;;;28.30;99.90;;;;;;5238842;28;20027;-62
2022/07/21 06:16:35;;;;;;;2.80;2.20;;;28.70;99.90;;;;;;5240198;28;20261;-63
2022/07/21 06:19:09;;;;;;;2.85;2.10;;;28.90;99.90;;;;;;5239635;28;20028;-63
2022/07/21 06:21:40;;;;;;;4.25;2.55;;;29.40;99.90;;;;;;5240996;28;20026;-62
2022/07/21 06:24:12;;;;;;;2.63;2.10;;;29.90;99.90;;;;;;5220331;28;20031;-63
2022/07/21 06:26:43;;;;;;;2.88;2.58;;;30.10;99.90;;;;;;5205022;28;20329;-63
2022/07/21 06:29:16;;;;;;;3.30;2.95;;;30.60;99.90;;;;;;5219442;28;20041;-63
2022/07/21 06:31:49;;;;;;;2.80;2.50;;;31.10;99.90;;;;;;5219844;28;20031;-63
2022/07/21 06:34:20;;;;;;;5.72;2.83;;;31.20;99.90;;;;;;5220336;28;21519;-62
2022/07/21 06:36:51;;;;;;;4.43;2.70;;;30.80;99.90;;;;;;5238517;28;20028;-63
2022/07/21 06:39:25;;;;;;;5.50;2.47;;;30.50;99.90;;;;;;5253814;28;20050;-62
2022/07/21 06:41:57;;;;;;;3.53;3.20;;;30.60;99.90;;;;;;5262030;28;20016;-64
2022/07/21 06:44:30;;;;;;;3.08;2.78;;;31.30;99.90;;;;;;5260518;28;20331;-62
2022/07/21 06:47:04;;;;;;;4.47;2.63;;;31.00;99.90;;;;;;5244319;28;20035;-62
2022/07/21 06:49:35;;;;;;;8.25;3.25;;;31.60;99.90;;;;;;5243346;28;20028;-62
2022/07/21 06:52:07;;;;;;;4.68;2.97;;;31.00;99.90;;;;;;5258277;28;20032;-62
2022/07/21 06:54:40;;;;;;;4.50;2.65;;;30.80;99.90;;;;;;5239683;28;20197;-62
2022/07/21 06:57:13;;;;;;;3.25;2.70;;;30.80;99.90;;;;;;5262836;28;20019;-64
2022/07/21 06:59:52;;;;;;;4.13;3.42;;;32.00;99.90;;;;;;5249396;28;20026;-62
2022/07/21 07:02:23;;;;;;;3.13;2.83;;;31.40;99.90;;;;;;5238186;28;20031;-63
2022/07/21 07:04:57;;;;;;;3.83;2.70;;;31.60;99.90;;;;;;5224527;28;20036;-63
2022/07/21 07:07:30;;;;;;;2.97;2.72;;;31.60;99.90;;;;;;5231681;28;20219;-62
2022/07/21 07:10:03;;;;;;;3.63;3.23;;;31.90;99.90;;;;;;5239982;28;20024;-62
2022/07/21 07:12:36;;;;;;;6.53;2.92;;;32.00;99.90;;;;;;5218605;28;20055;-63
2022/07/21 07:15:08;;;;;;;4.63;3.13;;;32.20;99.90;;;;;;5237405;28;20039;-63
2022/07/21 07:17:47;;;;;;;4.22;3.08;;;31.90;99.90;;;;;;5237449;28;20031;-61
2022/07/21 07:20:21;;;;;;;2.92;2.63;;;32.10;99.90;;;;;;5236839;28;20031;-62
2022/07/21 07:22:52;;;;;;;3.42;3.00;;;30.90;99.90;;;;;;5239983;28;20025;-63
2022/07/21 07:25:24;;;;;;;3.97;3.20;;;30.40;99.90;;;;;;5238261;28;20050;-63
2022/07/21 07:27:58;;;;;;;4.50;3.00;;;30.80;99.90;;;;;;5221841;28;20038;-62
2022/07/21 07:30:38;;;;;;;6.57;2.75;;;30.80;99.90;;;;;;5237449;28;20048;-62
2022/07/21 07:33:11;;;;;;;3.63;2.67;;;30.40;99.90;;;;;;5219361;28;20044;-62
2022/07/21 07:35:44;;;;;;;5.45;2.58;;;30.60;99.90;;;;;;5236641;28;20021;-62
2022/07/21 07:38:16;;;;;;;2.60;2.40;;;30.60;99.90;;;;;;5219732;28;20020;-62
2022/07/21 07:40:47;;;;;;;2.97;2.40;;;30.80;99.90;;;;;;5219721;28;20309;-62
2022/07/21 07:43:21;;;;;;;3.20;2.90;;;31.10;99.90;;;;;;5236506;28;20028;-62
2022/07/21 07:45:54;;;;;;;4.93;2.95;;;31.10;99.90;;;;;;5237510;28;20021;-62
2022/07/21 07:48:31;;;;;;;3.38;2.90;;;31.30;99.90;;;;;;5203063;28;20044;-62
2022/07/21 07:51:04;;;;;;;5.03;2.78;;;31.30;99.90;;;;;;5238703;28;20034;-61
2022/07/21 07:53:38;;;;;;;5.18;3.22;;;31.10;99.90;;;;;;5236968;28;20342;-62
2022/07/21 07:56:17;;;;;;;4.85;2.83;;;31.60;99.90;;;;;;5237213;28;20197;-62
2022/07/21 07:58:48;;;;;;;4.13;2.78;;;32.30;99.90;;;;;;5237190;28;20021;-64
2022/07/21 08:01:22;;;;;;;2.75;2.45;;;32.00;99.90;;;;;;5218769;28;20025;-63
2022/07/21 08:03:59;;;;;;;5.13;3.47;;;31.90;99.90;;;;;;5237780;28;20325;-61
2022/07/21 08:06:31;;;;;;;6.53;3.10;;;32.60;99.90;;;;;;5226365;28;20059;-62
2022/07/21 08:09:08;;;;;;;3.40;3.10;;;32.40;99.90;;;;;;5215709;28;20028;-63
2022/07/21 08:11:43;;;;;;;4.38;3.33;;;32.40;99.90;;;;;;5246616;28;20110;-62
2022/07/21 08:14:15;;;;;;;3.40;2.75;;;32.00;99.90;;;;;;5217416;28;20051;-62
2022/07/21 08:16:46;;;;;;;7.25;2.70;;;31.90;99.90;;;;;;5203580;28;20042;-62
2022/07/21 08:19:18;;;;;;;3.85;2.83;;;32.40;99.90;;;;;;5237641;28;20245;-63
2022/07/21 08:21:51;;;;;;;4.28;3.47;;;32.30;99.90;;;;;;5238429;28;20020;-61
2022/07/21 08:24:23;;;;;;;3.75;2.85;;;32.10;99.90;;;;;;5234574;28;20205;-60
2022/07/21 08:26:57;;;;;;;4.70;3.03;;;31.70;99.90;;;;;;5216718;28;20036;-63
2022/07/21 08:29:28;;;;;;;4.55;3.10;;;31.90;99.90;;;;;;5237535;28;20038;-62
2022/07/21 08:32:02;;;;;;;3.13;2.70;;;32.10;99.90;;;;;;5238458;28;20024;-62
2022/07/21 08:34:33;;;;;;;7.30;2.97;;;32.40;99.90;;;;;;5224312;28;20020;-62
2022/07/21 08:37:07;;;;;;;4.93;2.85;;;32.70;99.90;;;;;;5237051;28;20126;-62
2022/07/21 08:39:40;;;;;;;5.35;2.60;;;33.80;99.90;;;;;;5237871;28;20214;-62
2022/07/21 08:42:12;;;;;;;3.28;2.80;;;34.30;99.90;;;;;;5218664;28;20330;-63
2022/07/21 08:44:46;;;;;;;3.78;3.05;;;34.90;99.90;;;;;;5218958;28;20046;-64
2022/07/21 08:47:17;;;;;;;3.03;2.60;;;34.70;99.90;;;;;;5237924;28;20035;-63
2022/07/21 08:49:49;;;;;;;3.10;2.50;;;34.00;99.90;;;;;;5237576;28;20032;-64
2022/07/21 08:52:26;;;;;;;4.72;2.95;;;34.50;99.90;;;;;;5240143;28;20305;-61
2022/07/21 08:55:02;;;;;;;3.05;2.75;;;33.80;99.90;;;;;;5219353;28;20321;-63
2022/07/21 08:57:41;;;;;;;2.47;2.22;;;34.00;99.90;;;;;;5223197;28;20024;-63
2022/07/21 09:00:15;;;;;;;4.75;2.90;;;35.30;99.90;;;;;;5224782;28;20340;-62
2022/07/21 09:02:46;;;;;;;3.22;2.75;;;36.50;99.90;;;;;;5218479;28;20021;-62
2022/07/21 09:05:17;;;;;;;3.95;2.83;;;36.60;99.90;;;;;;5230563;28;20248;-62
2022/07/21 09:07:51;;;;;;;4.30;3.03;;;36.70;99.90;;;;;;5242418;28;20186;-63
2022/07/21 09:10:24;;;;;;;4.05;3.10;;;35.50;99.90;;;;;;5244347;28;20029;-63
2022/07/21 09:13:04;;;;;;;4.18;3.10;;;35.20;99.90;;;;;;5222817;28;20021;-62
2022/07/21 09:15:39;;;;;;;3.65;3.15;;;35.10;99.90;;;;;;5242809;28;20026;-62
2022/07/21 09:18:16;;;;;;;5.75;3.10;;;34.60;99.90;;;;;;5243382;28;20030;-63
2022/07/21 09:20:57;;;;;;;3.05;2.75;;;34.50;99.90;;;;;;5242516;28;20031;-62
2022/07/21 09:23:28;;;;;;;4.53;2.92;;;35.00;99.90;;;;;;5236204;28;20027;-62
2022/07/21 09:25:59;;;;;;;4.80;2.85;;;34.40;99.90;;;;;;5222671;28;20024;-62
2022/07/21 09:28:31;;;;;;;3.95;3.30;;;34.10;99.90;;;;;;5242142;28;20214;-62
2022/07/21 09:31:08;;;;;;;4.22;3.55;;;33.90;99.90;;;;;;5243044;28;20025;-62
2022/07/21 09:33:46;;;;;;;4.13;3.15;;;33.80;99.90;;;;;;5243945;28;20027;-61
2022/07/21 09:36:18;;;;;;;4.82;3.05;;;34.40;99.90;;;;;;5222570;28;20046;-61
2022/07/21 09:38:52;;;;;;;6.80;2.70;;;35.00;99.90;;;;;;5246272;28;20023;-63
2022/07/21 09:41:27;;;;;;;2.70;2.50;;;34.50;99.90;;;;;;5229040;28;20204;-62
2022/07/21 09:43:58;;;;;;;3.65;2.63;;;34.50;99.90;;;;;;5233974;28;20303;-62
2022/07/21 09:46:33;;;;;;;3.72;3.13;;;34.40;99.90;;;;;;5195383;28;20029;-64
2022/07/21 09:49:05;;;;;;;9.00;3.42;;;34.50;99.90;;;;;;5242286;28;20248;-63
2022/07/21 09:51:43;;;;;;;3.05;2.60;;;34.00;99.90;;;;;;5236901;28;20013;-62
2022/07/21 09:54:14;;;;;;;3.75;2.72;;;34.50;99.90;;;;;;5220907;28;20046;-62
2022/07/21 09:56:47;;;;;;;2.72;2.53;;;35.30;99.90;;;;;;5222767;28;20021;-63
2022/07/21 09:59:18;;;;;;;3.70;2.92;;;35.30;99.90;;;;;;5239234;28;20033;-62
2022/07/21 10:01:55;;;;;;;3.25;2.80;;;35.60;99.90;;;;;;5222555;28;20250;-62
2022/07/21 10:04:26;;;;;;;3.72;2.38;;;35.20;99.90;;;;;;5230766;28;20566;-62
2022/07/21 10:07:01;;;;;;;3.22;2.90;;;36.10;99.90;;;;;;5222843;28;20355;-62
2022/07/21 10:09:35;;;;;;;3.90;3.30;;;36.00;99.90;;;;;;5240947;28;20020;-61
2022/07/21 10:12:09;;;;;;;3.30;2.70;;;35.40;99.90;;;;;;5221994;28;20214;-62
2022/07/21 10:14:44;;;;;;;6.18;2.70;;;36.10;99.90;;;;;;5221828;28;20218;-62
2022/07/21 10:17:17;;;;;;;5.07;2.90;;;36.50;99.90;;;;;;5218517;28;20218;-63
2022/07/21 10:19:48;;;;;;;4.30;3.15;;;35.90;99.90;;;;;;5201568;28;20017;-62
2022/07/21 10:22:31;;;;;;;5.07;2.78;;;34.70;99.90;;;;;;5189278;28;20025;-62
2022/07/21 10:25:06;;;;;;;5.85;2.97;;;34.70;99.90;;;;;;5202029;28;20021;-62
2022/07/21 10:27:39;;;;;;;4.32;3.03;;;35.10;99.90;;;;;;5198855;28;20298;-62
2022/07/21 10:30:13;;;;;;;3.45;3.03;;;35.00;99.90;;;;;;5181002;28;20028;-63
2022/07/21 10:32:53;;;;;;;4.40;3.13;;;34.50;99.90;;;;;;5201903;28;20032;-62
2022/07/21 10:35:28;;;;;;;3.50;3.17;;;33.80;99.90;;;;;;5220391;28;20323;-62
2022/07/21 10:38:02;;;;;;;3.17;2.88;;;33.80;99.90;;;;;;5199153;28;20020;-61
2022/07/21 10:40:34;;;;;;;3.97;3.53;;;34.90;99.90;;;;;;5200704;28;20021;-62
2022/07/21 10:43:05;;;;;;;4.40;3.30;;;36.00;99.90;;;;;;5218403;28;20028;-62
2022/07/21 10:45:45;;;;;;;5.93;3.15;;;35.60;99.90;;;;;;5220148;28;20029;-62
2022/07/21 10:48:44;;;;;;;6.38;4.50;;;35.30;99.90;;;;;;5203456;28;20031;-62
2022/07/21 10:51:16;;;;;;;6.60;3.75;;;34.90;99.90;;;;;;5193378;28;20356;-62
2022/07/21 10:54:18;;;;;;;5.60;3.17;;;34.80;99.90;;;;;;5201181;28;20035;-62
2022/07/21 10:57:27;;;;;;;4.72;4.13;;;34.80;99.90;;;;;;5182914;28;20194;-62
2022/07/21 11:00:22;;;;;;;5.05;3.20;;;35.00;99.90;;;;;;5199180;28;20206;-64
2022/07/21 11:02:58;;;;;;;7.18;3.47;;;36.20;99.90;;;;;;5215713;28;20017;-62
2022/07/21 11:05:36;;;;;;;4.57;3.55;;;37.50;99.90;;;;;;5207861;28;20036;-64
2022/07/21 11:08:26;;;;;;;3.75;3.45;;;35.80;99.90;;;;;;5203338;28;20036;-61
2022/07/21 11:11:10;;;;;;;6.45;3.33;;;35.80;99.90;;;;;;5233178;28;20025;-62
2022/07/21 11:14:01;;;;;;;4.57;3.20;;;36.00;99.90;;;;;;5241831;28;20014;-65
2022/07/21 11:19:42;;;;;;;3.28;2.97;;;37.90;99.90;;;;;;5230282;28;20214;-62
2022/07/21 11:22:25;;;;;;;5.35;3.35;;;38.10;99.90;;;;;;5232205;28;20013;-61
2022/07/21 11:25:01;;;;;;;5.55;3.58;;;36.20;99.90;;;;;;5220807;28;20033;-62
2022/07/21 11:27:39;;;;;;;3.88;3.50;;;36.20;99.90;;;;;;5239226;28;20047;-61
2022/07/21 11:30:11;;;;;;;4.78;4.20;;;35.60;99.90;;;;;;5242670;28;20020;-62
2022/07/21 11:32:48;;;;;;;6.07;3.40;;;35.20;99.90;;;;;;5223599;28;20028;-62
2022/07/21 11:35:19;;;;;;;5.65;3.45;;;35.70;99.90;;;;;;5222207;28;20025;-64
2022/07/21 11:37:51;;;;;;;3.97;3.55;;;35.60;99.90;;;;;;5238704;28;20024;-63
2022/07/21 11:40:22;;;;;;;3.45;3.15;;;36.80;99.90;;;;;;5240638;28;20038;-61
2022/07/21 11:42:59;;;;;;;4.20;3.50;;;37.70;99.90;;;;;;5239253;28;20031;-61
2022/07/21 11:45:35;;;;;;;4.38;3.72;;;39.00;99.90;;;;;;5222042;28;20025;-62
2022/07/21 11:48:06;;;;;;;3.67;3.28;;;38.60;99.90;;;;;;5229131;28;20035;-62
2022/07/21 11:50:40;;;;;;;5.55;3.38;;;37.90;99.90;;;;;;5239569;28;20035;-62
2022/07/21 11:53:14;;;;;;;9.27;3.55;;;37.90;99.90;;;;;;5241900;28;20025;-61
2022/07/21 11:55:45;;;;;;;7.93;3.90;;;37.00;99.90;;;;;;5238471;28;20034;-62
2022/07/21 11:58:16;;;;;;;3.67;3.38;;;37.30;99.90;;;;;;5221251;28;20264;-62
2022/07/21 12:01:09;;;;;;;5.88;3.03;;;38.60;99.90;;;;;;5229096;28;20218;-62
2022/07/21 12:03:55;;;;;;;4.22;3.28;;;38.70;99.90;;;;;;5218254;28;20024;-64
2022/07/21 12:06:27;;;;;;;5.53;3.70;;;38.30;99.90;;;;;;5201016;28;20056;-62
2022/07/21 12:09:04;;;;;;;3.42;3.13;;;38.50;99.90;;;;;;5235713;28;20036;-63
2022/07/21 12:11:39;;;;;;;4.18;3.30;;;39.00;99.90;;;;;;5227225;28;20059;-62
2022/07/21 12:14:10;;;;;;;4.75;3.58;;;38.60;99.90;;;;;;5206442;28;20058;-62
2022/07/21 12:16:54;;;;;;;3.75;2.88;;;39.20;99.90;;;;;;5211864;28;20034;-62
2022/07/21 12:19:28;;;;;;;7.15;3.60;;;39.30;99.90;;;;;;5218574;28;20021;-65
2022/07/21 12:22:02;;;;;;;11.50;3.88;;;39.50;99.90;;;;;;5201897;28;20087;-64
2022/07/21 12:24:55;;;;;;;4.30;3.50;;;39.70;99.90;;;;;;5183386;28;20035;-63
2022/07/21 12:27:27;;;;;;;4.45;3.67;;;39.90;99.90;;;;;;5179730;28;20033;-62
2022/07/21 12:29:58;;;;;;;3.70;3.40;;;38.60;99.90;;;;;;5200110;28;20025;-61
2022/07/21 12:32:44;;;;;;;3.72;3.38;;;37.10;99.90;;;;;;5183727;28;20029;-62
2022/07/21 12:35:21;;;;;;;3.50;3.20;;;36.70;99.90;;;;;;5206451;28;20025;-63
2022/07/21 12:37:57;;;;;;;5.93;3.33;;;37.70;99.90;;;;;;5203523;28;20047;-62
2022/07/21 12:40:32;;;;;;;5.15;3.78;;;38.80;99.90;;;;;;5221991;28;20013;-62
2022/07/21 12:43:07;;;;;;;3.28;2.97;;;38.60;99.90;;;;;;5221885;28;20021;-62
2022/07/21 12:45:52;;;;;;;5.15;3.47;;;38.60;99.90;;;;;;5219467;28;20039;-62
2022/07/21 12:48:28;;;;;;;3.75;3.35;;;37.70;99.90;;;;;;5205894;28;20348;-63
2022/07/21 12:51:06;;;;;;;4.93;3.60;;;36.80;99.90;;;;;;5222315;28;20025;-62
2022/07/21 12:53:48;;;;;;;5.78;3.33;;;36.80;99.90;;;;;;5222124;28;20321;-61
2022/07/21 12:56:32;;;;;;;3.50;3.20;;;37.60;99.90;;;;;;5220853;28;20043;-61
2022/07/21 12:59:06;;;;;;;3.35;3.03;;;39.10;99.90;;;;;;5221358;28;20047;-62
2022/07/21 13:01:38;;;;;;;;;;;41.10;99.90;;;;;;5204894;28;20031;-62
2022/07/21 13:04:11;;;;;;;6.25;4.00;;;41.50;99.40;;;;;;5207698;28;19972;-64
2022/07/21 13:06:43;;;;;;;5.13;3.17;;;39.90;99.90;;;;;;5204803;28;20021;-63
2022/07/21 13:09:16;;;;;;;3.30;3.00;;;40.00;99.90;;;;;;5220827;28;20035;-62
2022/07/21 13:11:47;;;;;;;4.05;3.20;;;39.70;99.70;;;;;;5186366;28;20052;-61
2022/07/21 13:14:21;;;;;;;3.80;3.40;;;39.20;99.90;;;;;;5211089;28;20017;-63
2022/07/21 13:16:56;;;;;;;4.50;3.45;;;38.80;99.90;;;;;;5187021;28;20320;-63
2022/07/21 13:19:27;;;;;;;6.35;3.78;;;38.90;99.90;;;;;;5203217;28;20032;-63
2022/07/21 13:22:02;;;;;;;5.03;3.55;;;39.50;99.90;;;;;;5223714;28;20031;-62
2022/07/21 13:24:33;;;;;;;5.05;3.63;;;39.80;99.20;;;;;;5220309;28;20314;-63
2022/07/21 13:27:07;;;;;;;3.40;3.08;;;39.90;99.70;;;;;;5221585;28;20020;-65
2022/07/21 13:29:39;;;;;;;3.38;3.08;;;40.40;99.10;;;;;;5202989;28;20033;-63